sensor_id;sensor_type;location;lat;lon;timestamp;temperature;humidity
51922;DHT22;37948;53.260;6.394;2023-01-15T00:01:37;6.40;99.90
51922;DHT22;37948;53.260;6.394;2023-01-15T00:04:05;6.40;99.90
51922;DHT22;37948;53.260;6.394;2023-01-15T00:06:35;6.30;99.90
51922;DHT22;37948;53.260;6.394;2023-01-15T00:09:00;6.40;99.90
51922;DHT22;37948;53.260;6.394;2023-01-15T00:11:26;6.40;99.90
51922;DHT22;37948;53.260;6.394;2023-01-15T00:13:51;6.40;99.90
51922;DHT22;37948;53.260;6.394;2023-01-15T00:16:21;6.40;99.90
51922;DHT22;37948;53.260;6.394;2023-01-15T00:18:59;6.40;99.90
51922;DHT22;37948;53.260;6.394;2023-01-15T00:21:26;6.40;99.90
51922;DHT22;37948;53.260;6.394;2023-01-15T00:23:53;6.40;99.90
51922;DHT22;37948;53.260;6.394;2023-01-15T00:26:37;6.40;99.90
51922;DHT22;37948;53.260;6.394;2023-01-15T00:29:23;6.40;99.90
51922;DHT22;37948;53.260;6.394;2023-01-15T00:31:56;6.40;99.90
51922;DHT22;37948;53.260;6.394;2023-01-15T00:34:23;6.40;99.90
51922;DHT22;37948;53.260;6.394;2023-01-15T00:36:48;6.40;99.90
51922;DHT22;37948;53.260;6.394;2023-01-15T00:39:14;6.40;99.90
51922;DHT22;37948;53.260;6.394;2023-01-15T00:41:40;6.40;99.90
51922;DHT22;37948;53.260;6.394;2023-01-15T00:44:05;6.50;99.90
51922;DHT22;37948;53.260;6.394;2023-01-15T00:46:31;6.40;99.90
51922;DHT22;37948;53.260;6.394;2023-01-15T00:48:57;6.50;99.90
51922;DHT22;37948;53.260;6.394;2023-01-15T00:51:22;6.40;99.90
51922;DHT22;37948;53.260;6.394;2023-01-15T00:53:48;6.40;99.90
51922;DHT22;37948;53.260;6.394;2023-01-15T00:56:14;6.40;99.90
51922;DHT22;37948;53.260;6.394;2023-01-15T00:58:39;6.40;99.90
51922;DHT22;37948;53.260;6.394;2023-01-15T01:01:05;6.40;99.90
51922;DHT22;37948;53.260;6.394;2023-01-15T01:03:30;6.30;99.90
51922;DHT22;37948;53.260;6.394;2023-01-15T01:06:00;6.40;99.90
51922;DHT22;37948;53.260;6.394;2023-01-15T01:08:26;6.30;99.90
51922;DHT22;37948;53.260;6.394;2023-01-15T01:11:06;6.30;99.90
51922;DHT22;37948;53.260;6.394;2023-01-15T01:13:32;6.30;99.90
51922;DHT22;37948;53.260;6.394;2023-01-15T01:15:58;6.30;99.90
51922;DHT22;37948;53.260;6.394;2023-01-15T01:18:24;6.30;99.90
51922;DHT22;37948;53.260;6.394;2023-01-15T01:20:50;6.30;99.90
51922;DHT22;37948;53.260;6.394;2023-01-15T01:23:15;6.30;99.90
51922;DHT22;37948;53.260;6.394;2023-01-15T01:25:41;6.30;99.90
51922;DHT22;37948;53.260;6.394;2023-01-15T01:28:07;6.30;99.90
51922;DHT22;37948;53.260;6.394;2023-01-15T01:30:32;6.30;99.90
51922;DHT22;37948;53.260;6.394;2023-01-15T01:32:58;6.30;99.90
51922;DHT22;37948;53.260;6.394;2023-01-15T01:35:23;6.30;99.90
51922;DHT22;37948;53.260;6.394;2023-01-15T01:37:50;6.30;99.90
51922;DHT22;37948;53.260;6.394;2023-01-15T01:40:17;6.30;99.90
51922;DHT22;37948;53.260;6.394;2023-01-15T01:42:42;6.30;99.90
51922;DHT22;37948;53.260;6.394;2023-01-15T01:45:24;6.30;99.90
51922;DHT22;37948;53.260;6.394;2023-01-15T01:47:54;6.30;99.90
51922;DHT22;37948;53.260;6.394;2023-01-15T01:50:20;6.30;99.90
51922;DHT22;37948;53.260;6.394;2023-01-15T01:52:53;6.30;99.90
51922;DHT22;37948;53.260;6.394;2023-01-15T01:55:22;6.30;99.90
51922;DHT22;37948;53.260;6.394;2023-01-15T01:57:51;6.30;99.90
51922;DHT22;37948;53.260;6.394;2023-01-15T02:00:18;6.30;99.90
51922;DHT22;37948;53.260;6.394;2023-01-15T02:02:46;6.30;99.90
51922;DHT22;37948;53.260;6.394;2023-01-15T02:05:17;6.30;99.90
51922;DHT22;37948;53.260;6.394;2023-01-15T02:07:45;6.30;99.90
51922;DHT22;37948;53.260;6.394;2023-01-15T02:10:15;6.30;99.90
51922;DHT22;37948;53.260;6.394;2023-01-15T02:12:42;6.30;99.90
51922;DHT22;37948;53.260;6.394;2023-01-15T02:15:15;6.30;99.90
51922;DHT22;37948;53.260;6.394;2023-01-15T02:18:07;6.30;99.90
51922;DHT22;37948;53.260;6.394;2023-01-15T02:23:37;6.30;99.90
51922;DHT22;37948;53.260;6.394;2023-01-15T02:27:29;6.20;99.90
51922;DHT22;37948;53.260;6.394;2023-01-15T02:29:38;6.20;99.90
51922;DHT22;37948;53.260;6.394;2023-01-15T02:32:14;6.20;99.90
51922;DHT22;37948;53.260;6.394;2023-01-15T02:34:47;6.20;99.90
51922;DHT22;37948;53.260;6.394;2023-01-15T02:37:19;6.20;99.90
51922;DHT22;37948;53.260;6.394;2023-01-15T02:39:47;6.20;99.90
51922;DHT22;37948;53.260;6.394;2023-01-15T02:42:14;6.20;99.90
51922;DHT22;37948;53.260;6.394;2023-01-15T02:44:46;6.30;99.90
51922;DHT22;37948;53.260;6.394;2023-01-15T02:47:16;6.30;99.90
51922;DHT22;37948;53.260;6.394;2023-01-15T02:49:44;6.30;99.90
51922;DHT22;37948;53.260;6.394;2023-01-15T02:52:34;6.20;99.90
51922;DHT22;37948;53.260;6.394;2023-01-15T02:55:07;6.30;99.90
51922;DHT22;37948;53.260;6.394;2023-01-15T02:57:37;6.20;99.90
51922;DHT22;37948;53.260;6.394;2023-01-15T03:00:08;6.20;99.90
51922;DHT22;37948;53.260;6.394;2023-01-15T03:02:41;6.20;99.90
51922;DHT22;37948;53.260;6.394;2023-01-15T03:05:12;6.20;99.90
51922;DHT22;37948;53.260;6.394;2023-01-15T03:07:47;6.20;99.90
51922;DHT22;37948;53.260;6.394;2023-01-15T03:10:14;6.10;99.90
51922;DHT22;37948;53.260;6.394;2023-01-15T03:13:19;6.20;99.90
51922;DHT22;37948;53.260;6.394;2023-01-15T03:15:57;6.20;99.90
51922;DHT22;37948;53.260;6.394;2023-01-15T03:18:49;6.20;99.90
51922;DHT22;37948;53.260;6.394;2023-01-15T03:21:21;6.10;99.90
51922;DHT22;37948;53.260;6.394;2023-01-15T03:23:53;6.10;99.90
51922;DHT22;37948;53.260;6.394;2023-01-15T03:26:19;6.00;99.90
51922;DHT22;37948;53.260;6.394;2023-01-15T03:28:45;6.10;99.90
51922;DHT22;37948;53.260;6.394;2023-01-15T03:31:12;6.10;99.90
51922;DHT22;37948;53.260;6.394;2023-01-15T03:33:39;6.00;99.90
51922;DHT22;37948;53.260;6.394;2023-01-15T03:36:05;6.10;99.90
51922;DHT22;37948;53.260;6.394;2023-01-15T03:38:36;6.10;99.90
51922;DHT22;37948;53.260;6.394;2023-01-15T03:41:24;6.10;99.90
51922;DHT22;37948;53.260;6.394;2023-01-15T03:57:27;6.10;99.90
51922;DHT22;37948;53.260;6.394;2023-01-15T03:59:57;6.10;99.90
51922;DHT22;37948;53.260;6.394;2023-01-15T04:02:26;6.00;99.90
51922;DHT22;37948;53.260;6.394;2023-01-15T04:04:53;6.00;99.90
51922;DHT22;37948;53.260;6.394;2023-01-15T04:07:21;6.00;99.90
51922;DHT22;37948;53.260;6.394;2023-01-15T04:09:47;6.00;99.90
51922;DHT22;37948;53.260;6.394;2023-01-15T04:12:13;5.90;99.90
51922;DHT22;37948;53.260;6.394;2023-01-15T04:14:39;6.00;99.90
51922;DHT22;37948;53.260;6.394;2023-01-15T04:17:05;6.00;99.90
51922;DHT22;37948;53.260;6.394;2023-01-15T04:19:30;6.00;99.90
51922;DHT22;37948;53.260;6.394;2023-01-15T04:21:56;6.00;99.90
51922;DHT22;37948;53.260;6.394;2023-01-15T04:24:21;6.00;99.90
51922;DHT22;37948;53.260;6.394;2023-01-15T04:26:47;6.00;99.90
51922;DHT22;37948;53.260;6.394;2023-01-15T04:29:13;5.90;99.90
51922;DHT22;37948;53.260;6.394;2023-01-15T04:31:38;5.90;99.90
51922;DHT22;37948;53.260;6.394;2023-01-15T04:34:04;5.90;99.90
51922;DHT22;37948;53.260;6.394;2023-01-15T04:36:29;5.90;99.90
51922;DHT22;37948;53.260;6.394;2023-01-15T04:38:56;5.90;99.90
51922;DHT22;37948;53.260;6.394;2023-01-15T04:41:23;5.90;99.90
51922;DHT22;37948;53.260;6.394;2023-01-15T04:44:07;5.90;99.90
51922;DHT22;37948;53.260;6.394;2023-01-15T04:46:37;5.90;99.90
51922;DHT22;37948;53.260;6.394;2023-01-15T04:49:04;5.80;99.90
51922;DHT22;37948;53.260;6.394;2023-01-15T04:51:30;5.80;99.90
51922;DHT22;37948;53.260;6.394;2023-01-15T04:53:56;5.80;99.90
51922;DHT22;37948;53.260;6.394;2023-01-15T04:56:22;5.80;99.90
51922;DHT22;37948;53.260;6.394;2023-01-15T04:58:47;5.80;99.90
51922;DHT22;37948;53.260;6.394;2023-01-15T05:01:14;5.80;99.90
51922;DHT22;37948;53.260;6.394;2023-01-15T05:03:41;5.80;99.90
51922;DHT22;37948;53.260;6.394;2023-01-15T05:06:06;5.80;99.90
51922;DHT22;37948;53.260;6.394;2023-01-15T05:08:32;5.70;99.90
51922;DHT22;37948;53.260;6.394;2023-01-15T05:11:06;5.70;99.90
51922;DHT22;37948;53.260;6.394;2023-01-15T05:13:32;5.70;99.90
51922;DHT22;37948;53.260;6.394;2023-01-15T05:16:19;5.70;99.90
51922;DHT22;37948;53.260;6.394;2023-01-15T05:18:46;5.70;99.90
51922;DHT22;37948;53.260;6.394;2023-01-15T05:21:20;5.70;99.90
51922;DHT22;37948;53.260;6.394;2023-01-15T05:23:47;5.70;99.90
51922;DHT22;37948;53.260;6.394;2023-01-15T05:26:13;5.70;99.90
51922;DHT22;37948;53.260;6.394;2023-01-15T05:28:38;5.70;99.90
51922;DHT22;37948;53.260;6.394;2023-01-15T05:31:09;5.70;99.90
51922;DHT22;37948;53.260;6.394;2023-01-15T05:33:36;5.60;99.90
51922;DHT22;37948;53.260;6.394;2023-01-15T05:36:07;5.60;99.90
51922;DHT22;37948;53.260;6.394;2023-01-15T05:38:33;5.60;99.90
51922;DHT22;37948;53.260;6.394;2023-01-15T05:41:05;5.60;99.90
51922;DHT22;37948;53.260;6.394;2023-01-15T05:43:50;5.60;99.90
51922;DHT22;37948;53.260;6.394;2023-01-15T05:46:16;5.60;99.90
51922;DHT22;37948;53.260;6.394;2023-01-15T05:48:42;5.60;99.90
51922;DHT22;37948;53.260;6.394;2023-01-15T05:51:08;5.50;99.90
51922;DHT22;37948;53.260;6.394;2023-01-15T05:53:33;5.50;99.90
51922;DHT22;37948;53.260;6.394;2023-01-15T05:56:03;5.50;99.90
51922;DHT22;37948;53.260;6.394;2023-01-15T05:58:29;5.50;99.90
51922;DHT22;37948;53.260;6.394;2023-01-15T06:00:55;5.50;99.90
51922;DHT22;37948;53.260;6.394;2023-01-15T06:03:21;5.40;99.90
51922;DHT22;37948;53.260;6.394;2023-01-15T06:05:55;5.50;99.90
51922;DHT22;37948;53.260;6.394;2023-01-15T06:08:23;5.40;99.90
51922;DHT22;37948;53.260;6.394;2023-01-15T06:10:49;5.50;99.90
51922;DHT22;37948;53.260;6.394;2023-01-15T06:13:16;5.40;99.90
51922;DHT22;37948;53.260;6.394;2023-01-15T06:15:43;5.40;99.90
51922;DHT22;37948;53.260;6.394;2023-01-15T06:18:08;5.40;99.90
51922;DHT22;37948;53.260;6.394;2023-01-15T06:20:35;5.40;99.90
51922;DHT22;37948;53.260;6.394;2023-01-15T06:23:01;5.40;99.90
51922;DHT22;37948;53.260;6.394;2023-01-15T06:25:27;5.40;99.90
51922;DHT22;37948;53.260;6.394;2023-01-15T06:27:52;5.40;99.90
51922;DHT22;37948;53.260;6.394;2023-01-15T06:30:18;5.40;99.90
51922;DHT22;37948;53.260;6.394;2023-01-15T06:32:44;5.40;99.90
51922;DHT22;37948;53.260;6.394;2023-01-15T06:35:10;5.40;99.90
51922;DHT22;37948;53.260;6.394;2023-01-15T06:37:36;5.30;99.90
51922;DHT22;37948;53.260;6.394;2023-01-15T06:40:02;5.30;99.90
51922;DHT22;37948;53.260;6.394;2023-01-15T06:42:28;5.40;99.90
51922;DHT22;37948;53.260;6.394;2023-01-15T06:45:12;5.40;99.90
51922;DHT22;37948;53.260;6.394;2023-01-15T06:47:57;5.40;99.90
51922;DHT22;37948;53.260;6.394;2023-01-15T06:50:23;5.40;99.90
51922;DHT22;37948;53.260;6.394;2023-01-15T06:52:50;5.40;99.90
51922;DHT22;37948;53.260;6.394;2023-01-15T06:55:15;5.40;99.90
51922;DHT22;37948;53.260;6.394;2023-01-15T06:57:43;5.40;99.90
51922;DHT22;37948;53.260;6.394;2023-01-15T07:00:10;5.50;99.90
51922;DHT22;37948;53.260;6.394;2023-01-15T07:02:36;5.40;99.90
51922;DHT22;37948;53.260;6.394;2023-01-15T07:05:02;5.40;99.90
51922;DHT22;37948;53.260;6.394;2023-01-15T07:07:28;5.40;99.90
51922;DHT22;37948;53.260;6.394;2023-01-15T07:09:54;5.40;99.90
51922;DHT22;37948;53.260;6.394;2023-01-15T07:12:20;5.40;99.90
51922;DHT22;37948;53.260;6.394;2023-01-15T07:14:46;5.40;99.90
51922;DHT22;37948;53.260;6.394;2023-01-15T07:17:12;5.30;99.90
51922;DHT22;37948;53.260;6.394;2023-01-15T07:19:38;5.30;99.90
51922;DHT22;37948;53.260;6.394;2023-01-15T07:22:05;5.30;99.90
51922;DHT22;37948;53.260;6.394;2023-01-15T07:24:31;5.40;99.90
51922;DHT22;37948;53.260;6.394;2023-01-15T07:26:57;5.40;99.90
51922;DHT22;37948;53.260;6.394;2023-01-15T07:29:22;5.40;99.90
51922;DHT22;37948;53.260;6.394;2023-01-15T07:31:49;5.40;99.90
51922;DHT22;37948;53.260;6.394;2023-01-15T07:34:15;5.40;99.90
51922;DHT22;37948;53.260;6.394;2023-01-15T07:36:41;5.40;99.90
51922;DHT22;37948;53.260;6.394;2023-01-15T07:39:08;5.40;99.90
51922;DHT22;37948;53.260;6.394;2023-01-15T07:41:35;5.50;99.90
51922;DHT22;37948;53.260;6.394;2023-01-15T07:44:19;5.50;99.90
51922;DHT22;37948;53.260;6.394;2023-01-15T07:47:19;5.50;99.90
51922;DHT22;37948;53.260;6.394;2023-01-15T07:50:05;5.50;99.90
51922;DHT22;37948;53.260;6.394;2023-01-15T07:52:31;5.40;99.90
51922;DHT22;37948;53.260;6.394;2023-01-15T07:54:57;5.40;99.90
51922;DHT22;37948;53.260;6.394;2023-01-15T07:57:23;5.40;99.90
51922;DHT22;37948;53.260;6.394;2023-01-15T07:59:49;5.40;99.90
51922;DHT22;37948;53.260;6.394;2023-01-15T08:02:15;5.40;99.90
51922;DHT22;37948;53.260;6.394;2023-01-15T08:04:41;5.40;99.90
51922;DHT22;37948;53.260;6.394;2023-01-15T08:07:07;5.40;99.90
51922;DHT22;37948;53.260;6.394;2023-01-15T08:09:33;5.30;99.90
51922;DHT22;37948;53.260;6.394;2023-01-15T08:11:59;5.30;99.90
51922;DHT22;37948;53.260;6.394;2023-01-15T08:14:44;5.40;99.90
51922;DHT22;37948;53.260;6.394;2023-01-15T08:17:28;5.40;99.90
51922;DHT22;37948;53.260;6.394;2023-01-15T08:19:54;5.40;99.90
51922;DHT22;37948;53.260;6.394;2023-01-15T08:22:20;5.40;99.90
51922;DHT22;37948;53.260;6.394;2023-01-15T08:24:45;5.40;99.90
51922;DHT22;37948;53.260;6.394;2023-01-15T08:27:11;5.40;99.90
51922;DHT22;37948;53.260;6.394;2023-01-15T08:29:38;5.40;99.90
51922;DHT22;37948;53.260;6.394;2023-01-15T08:32:04;5.40;99.90
51922;DHT22;37948;53.260;6.394;2023-01-15T08:34:30;5.40;99.90
51922;DHT22;37948;53.260;6.394;2023-01-15T08:36:56;5.40;99.90
51922;DHT22;37948;53.260;6.394;2023-01-15T08:39:25;5.40;99.90
51922;DHT22;37948;53.260;6.394;2023-01-15T08:41:52;5.40;99.90
51922;DHT22;37948;53.260;6.394;2023-01-15T08:44:17;5.50;99.90
51922;DHT22;37948;53.260;6.394;2023-01-15T08:46:43;5.50;99.90
51922;DHT22;37948;53.260;6.394;2023-01-15T08:49:11;5.50;99.90
51922;DHT22;37948;53.260;6.394;2023-01-15T08:51:37;5.50;99.90
51922;DHT22;37948;53.260;6.394;2023-01-15T08:54:03;5.50;99.90
51922;DHT22;37948;53.260;6.394;2023-01-15T08:56:28;5.50;99.90
51922;DHT22;37948;53.260;6.394;2023-01-15T08:58:54;5.50;99.90
51922;DHT22;37948;53.260;6.394;2023-01-15T09:01:19;5.50;99.90
51922;DHT22;37948;53.260;6.394;2023-01-15T09:03:45;5.40;99.90
51922;DHT22;37948;53.260;6.394;2023-01-15T09:06:10;5.40;99.90
51922;DHT22;37948;53.260;6.394;2023-01-15T09:08:38;5.40;99.90
51922;DHT22;37948;53.260;6.394;2023-01-15T09:11:07;5.30;99.90
51922;DHT22;37948;53.260;6.394;2023-01-15T09:13:37;5.30;99.90
51922;DHT22;37948;53.260;6.394;2023-01-15T09:16:04;5.30;99.90
51922;DHT22;37948;53.260;6.394;2023-01-15T09:18:30;5.30;99.90
51922;DHT22;37948;53.260;6.394;2023-01-15T09:20:56;5.30;99.90
51922;DHT22;37948;53.260;6.394;2023-01-15T09:23:22;5.20;99.90
51922;DHT22;37948;53.260;6.394;2023-01-15T09:26:06;5.20;99.90
51922;DHT22;37948;53.260;6.394;2023-01-15T09:28:33;5.30;99.90
51922;DHT22;37948;53.260;6.394;2023-01-15T09:30:59;5.30;99.90
51922;DHT22;37948;53.260;6.394;2023-01-15T09:33:25;5.40;99.90
51922;DHT22;37948;53.260;6.394;2023-01-15T09:35:51;5.40;99.90
51922;DHT22;37948;53.260;6.394;2023-01-15T09:38:19;5.50;99.90
51922;DHT22;37948;53.260;6.394;2023-01-15T09:40:50;5.40;99.90
51922;DHT22;37948;53.260;6.394;2023-01-15T09:45:50;5.50;99.90
51922;DHT22;37948;53.260;6.394;2023-01-15T09:56:21;5.70;99.90
51922;DHT22;37948;53.260;6.394;2023-01-15T09:58:48;5.80;99.90
51922;DHT22;37948;53.260;6.394;2023-01-15T10:01:18;5.90;99.90
51922;DHT22;37948;53.260;6.394;2023-01-15T10:03:50;5.90;99.90
51922;DHT22;37948;53.260;6.394;2023-01-15T10:06:27;5.80;99.90
51922;DHT22;37948;53.260;6.394;2023-01-15T10:09:13;5.70;99.90
51922;DHT22;37948;53.260;6.394;2023-01-15T10:11:46;5.80;99.90
51922;DHT22;37948;53.260;6.394;2023-01-15T10:14:42;5.80;99.90
51922;DHT22;37948;53.260;6.394;2023-01-15T10:17:20;5.90;99.90
51922;DHT22;37948;53.260;6.394;2023-01-15T10:19:47;6.00;99.90
51922;DHT22;37948;53.260;6.394;2023-01-15T10:25:23;6.10;99.90
51922;DHT22;37948;53.260;6.394;2023-01-15T10:27:51;6.10;99.90
51922;DHT22;37948;53.260;6.394;2023-01-15T10:32:56;6.10;99.90
51922;DHT22;37948;53.260;6.394;2023-01-15T10:35:40;6.10;99.90
51922;DHT22;37948;53.260;6.394;2023-01-15T10:43:42;6.10;99.90
51922;DHT22;37948;53.260;6.394;2023-01-15T10:46:24;6.10;99.90
51922;DHT22;37948;53.260;6.394;2023-01-15T10:51:48;6.30;99.90
51922;DHT22;37948;53.260;6.394;2023-01-15T10:54:39;6.50;99.90
51922;DHT22;37948;53.260;6.394;2023-01-15T10:57:34;6.60;99.90
51922;DHT22;37948;53.260;6.394;2023-01-15T11:00:02;6.70;99.90
51922;DHT22;37948;53.260;6.394;2023-01-15T11:02:42;6.70;99.90
51922;DHT22;37948;53.260;6.394;2023-01-15T11:05:15;6.80;99.90
51922;DHT22;37948;53.260;6.394;2023-01-15T11:07:50;6.90;99.90
51922;DHT22;37948;53.260;6.394;2023-01-15T11:10:19;7.00;99.90
51922;DHT22;37948;53.260;6.394;2023-01-15T11:12:55;7.00;99.90
51922;DHT22;37948;53.260;6.394;2023-01-15T11:15:44;7.00;99.90
51922;DHT22;37948;53.260;6.394;2023-01-15T11:18:32;7.00;99.90
51922;DHT22;37948;53.260;6.394;2023-01-15T11:21:20;6.90;99.90
51922;DHT22;37948;53.260;6.394;2023-01-15T11:23:47;6.90;99.90
51922;DHT22;37948;53.260;6.394;2023-01-15T11:26:20;6.90;99.90
51922;DHT22;37948;53.260;6.394;2023-01-15T11:28:47;6.80;99.90
51922;DHT22;37948;53.260;6.394;2023-01-15T11:31:14;6.80;99.90
51922;DHT22;37948;53.260;6.394;2023-01-15T11:34:04;6.80;99.90
51922;DHT22;37948;53.260;6.394;2023-01-15T11:36:30;6.80;99.90
51922;DHT22;37948;53.260;6.394;2023-01-15T11:38:56;6.80;99.90
51922;DHT22;37948;53.260;6.394;2023-01-15T11:41:33;6.80;99.90
51922;DHT22;37948;53.260;6.394;2023-01-15T11:44:20;6.80;99.90
51922;DHT22;37948;53.260;6.394;2023-01-15T11:47:12;6.70;99.90
51922;DHT22;37948;53.260;6.394;2023-01-15T11:49:57;6.70;99.90
51922;DHT22;37948;53.260;6.394;2023-01-15T11:52:47;6.60;99.90
51922;DHT22;37948;53.260;6.394;2023-01-15T11:55:18;6.30;99.90
51922;DHT22;37948;53.260;6.394;2023-01-15T11:57:45;6.20;99.90
51922;DHT22;37948;53.260;6.394;2023-01-15T12:00:21;6.10;99.90
51922;DHT22;37948;53.260;6.394;2023-01-15T12:02:48;6.10;99.90
51922;DHT22;37948;53.260;6.394;2023-01-15T12:05:20;6.00;99.90
51922;DHT22;37948;53.260;6.394;2023-01-15T12:07:55;5.90;99.90
51922;DHT22;37948;53.260;6.394;2023-01-15T12:10:27;5.80;99.90
51922;DHT22;37948;53.260;6.394;2023-01-15T12:13:27;5.70;99.90
51922;DHT22;37948;53.260;6.394;2023-01-15T12:29:35;5.30;99.90
51922;DHT22;37948;53.260;6.394;2023-01-15T12:32:12;5.30;99.90
51922;DHT22;37948;53.260;6.394;2023-01-15T12:34:54;5.20;99.90
51922;DHT22;37948;53.260;6.394;2023-01-15T12:37:28;5.30;99.90
51922;DHT22;37948;53.260;6.394;2023-01-15T12:40:20;5.30;99.90
51922;DHT22;37948;53.260;6.394;2023-01-15T12:42:45;5.30;99.90
51922;DHT22;37948;53.260;6.394;2023-01-15T12:45:35;5.40;99.90
51922;DHT22;37948;53.260;6.394;2023-01-15T12:48:12;5.30;99.90
51922;DHT22;37948;53.260;6.394;2023-01-15T12:50:46;5.40;99.90
51922;DHT22;37948;53.260;6.394;2023-01-15T12:58:52;5.40;99.90
51922;DHT22;37948;53.260;6.394;2023-01-15T13:04:22;5.40;99.90
51922;DHT22;37948;53.260;6.394;2023-01-15T13:06:55;5.40;99.90
51922;DHT22;37948;53.260;6.394;2023-01-15T13:09:48;5.40;99.90
51922;DHT22;37948;53.260;6.394;2023-01-15T13:12:17;5.40;99.90
51922;DHT22;37948;53.260;6.394;2023-01-15T13:14:43;5.40;99.90
51922;DHT22;37948;53.260;6.394;2023-01-15T13:17:21;5.40;99.90
51922;DHT22;37948;53.260;6.394;2023-01-15T13:23:08;5.40;99.90
51922;DHT22;37948;53.260;6.394;2023-01-15T13:37:06;5.40;99.90
51922;DHT22;37948;53.260;6.394;2023-01-15T13:39:42;5.20;99.90
51922;DHT22;37948;53.260;6.394;2023-01-15T13:42:23;5.10;99.90
51922;DHT22;37948;53.260;6.394;2023-01-15T13:45:19;5.00;99.90
51922;DHT22;37948;53.260;6.394;2023-01-15T13:47:51;5.00;99.90
51922;DHT22;37948;53.260;6.394;2023-01-15T13:50:31;4.90;99.90
51922;DHT22;37948;53.260;6.394;2023-01-15T13:53:04;4.90;99.90
51922;DHT22;37948;53.260;6.394;2023-01-15T13:55:37;4.90;99.90
51922;DHT22;37948;53.260;6.394;2023-01-15T13:58:19;4.90;99.90
51922;DHT22;37948;53.260;6.394;2023-01-15T14:00:46;4.90;99.90
51922;DHT22;37948;53.260;6.394;2023-01-15T14:03:28;4.90;99.90
51922;DHT22;37948;53.260;6.394;2023-01-15T14:06:02;4.90;99.90
51922;DHT22;37948;53.260;6.394;2023-01-15T14:08:42;4.90;99.90
51922;DHT22;37948;53.260;6.394;2023-01-15T14:11:34;4.90;99.90
51922;DHT22;37948;53.260;6.394;2023-01-15T14:14:20;4.90;99.90
51922;DHT22;37948;53.260;6.394;2023-01-15T14:20:16;5.00;99.90
51922;DHT22;37948;53.260;6.394;2023-01-15T14:29:14;5.30;99.90
51922;DHT22;37948;53.260;6.394;2023-01-15T14:34:29;5.50;99.90
51922;DHT22;37948;53.260;6.394;2023-01-15T14:39:46;5.60;99.90
51922;DHT22;37948;53.260;6.394;2023-01-15T14:45:07;5.60;99.90
51922;DHT22;37948;53.260;6.394;2023-01-15T14:47:53;5.70;99.90
51922;DHT22;37948;53.260;6.394;2023-01-15T14:52:54;5.70;99.90
51922;DHT22;37948;53.260;6.394;2023-01-15T14:55:20;5.70;99.90
51922;DHT22;37948;53.260;6.394;2023-01-15T15:00:43;5.70;99.90
51922;DHT22;37948;53.260;6.394;2023-01-15T15:03:15;5.70;99.90
51922;DHT22;37948;53.260;6.394;2023-01-15T15:05:42;5.70;99.90
51922;DHT22;37948;53.260;6.394;2023-01-15T15:08:14;5.70;99.90
51922;DHT22;37948;53.260;6.394;2023-01-15T15:10:42;5.70;99.90
51922;DHT22;37948;53.260;6.394;2023-01-15T15:13:21;5.70;99.90
51922;DHT22;37948;53.260;6.394;2023-01-15T15:16:06;5.70;99.90
51922;DHT22;37948;53.260;6.394;2023-01-15T15:18:37;5.70;99.90
51922;DHT22;37948;53.260;6.394;2023-01-15T15:21:22;5.70;99.90
51922;DHT22;37948;53.260;6.394;2023-01-15T15:24:02;5.70;99.90
51922;DHT22;37948;53.260;6.394;2023-01-15T15:26:31;5.70;99.90
51922;DHT22;37948;53.260;6.394;2023-01-15T15:28:59;5.70;99.90
51922;DHT22;37948;53.260;6.394;2023-01-15T15:31:25;5.70;99.90
51922;DHT22;37948;53.260;6.394;2023-01-15T15:33:55;5.70;99.90
51922;DHT22;37948;53.260;6.394;2023-01-15T15:36:23;5.70;99.90
51922;DHT22;37948;53.260;6.394;2023-01-15T15:41:19;5.60;99.90
51922;DHT22;37948;53.260;6.394;2023-01-15T15:44:34;5.60;99.90
51922;DHT22;37948;53.260;6.394;2023-01-15T15:47:24;5.60;99.90
51922;DHT22;37948;53.260;6.394;2023-01-15T15:50:23;5.60;99.90
51922;DHT22;37948;53.260;6.394;2023-01-15T15:52:50;5.60;99.90
51922;DHT22;37948;53.260;6.394;2023-01-15T15:55:17;5.60;99.90
51922;DHT22;37948;53.260;6.394;2023-01-15T15:57:46;5.50;99.90
51922;DHT22;37948;53.260;6.394;2023-01-15T16:00:18;5.50;99.90
51922;DHT22;37948;53.260;6.394;2023-01-15T16:02:45;5.50;99.90
51922;DHT22;37948;53.260;6.394;2023-01-15T16:05:22;5.40;99.90
51922;DHT22;37948;53.260;6.394;2023-01-15T16:07:48;5.40;99.90
51922;DHT22;37948;53.260;6.394;2023-01-15T16:12:48;5.30;99.90
51922;DHT22;37948;53.260;6.394;2023-01-15T16:15:18;5.30;99.90
51922;DHT22;37948;53.260;6.394;2023-01-15T16:17:45;5.30;99.90
51922;DHT22;37948;53.260;6.394;2023-01-15T16:20:16;5.20;99.90
51922;DHT22;37948;53.260;6.394;2023-01-15T16:22:58;5.20;99.90
51922;DHT22;37948;53.260;6.394;2023-01-15T16:25:32;5.20;99.90
51922;DHT22;37948;53.260;6.394;2023-01-15T16:27:59;5.20;99.90
51922;DHT22;37948;53.260;6.394;2023-01-15T16:30:26;5.20;99.90
51922;DHT22;37948;53.260;6.394;2023-01-15T16:32:53;5.20;99.90
51922;DHT22;37948;53.260;6.394;2023-01-15T16:35:23;5.20;99.90
51922;DHT22;37948;53.260;6.394;2023-01-15T16:37:51;5.10;99.90
51922;DHT22;37948;53.260;6.394;2023-01-15T16:40:30;5.10;99.90
51922;DHT22;37948;53.260;6.394;2023-01-15T16:43:10;5.10;99.90
51922;DHT22;37948;53.260;6.394;2023-01-15T16:48:30;5.10;99.90
51922;DHT22;37948;53.260;6.394;2023-01-15T16:54:03;5.00;99.90
51922;DHT22;37948;53.260;6.394;2023-01-15T16:59:02;4.90;99.90
51922;DHT22;37948;53.260;6.394;2023-01-15T17:01:47;5.00;99.90
51922;DHT22;37948;53.260;6.394;2023-01-15T17:09:27;4.80;99.90
51922;DHT22;37948;53.260;6.394;2023-01-15T17:11:53;4.90;99.90
51922;DHT22;37948;53.260;6.394;2023-01-15T17:14:24;4.90;99.90
51922;DHT22;37948;53.260;6.394;2023-01-15T17:19:41;4.80;99.90
51922;DHT22;37948;53.260;6.394;2023-01-15T17:22:13;4.80;99.90
51922;DHT22;37948;53.260;6.394;2023-01-15T17:24:50;4.90;99.90
51922;DHT22;37948;53.260;6.394;2023-01-15T17:27:16;4.80;99.90
51922;DHT22;37948;53.260;6.394;2023-01-15T17:29:42;4.80;99.90
51922;DHT22;37948;53.260;6.394;2023-01-15T17:32:14;4.80;99.90
51922;DHT22;37948;53.260;6.394;2023-01-15T17:34:41;4.80;99.90
51922;DHT22;37948;53.260;6.394;2023-01-15T17:37:06;4.70;99.90
51922;DHT22;37948;53.260;6.394;2023-01-15T17:39:32;4.70;99.90
51922;DHT22;37948;53.260;6.394;2023-01-15T17:41:58;4.70;99.90
51922;DHT22;37948;53.260;6.394;2023-01-15T17:44:24;4.70;99.90
51922;DHT22;37948;53.260;6.394;2023-01-15T17:46:49;4.70;99.90
51922;DHT22;37948;53.260;6.394;2023-01-15T17:49:15;4.70;99.90
51922;DHT22;37948;53.260;6.394;2023-01-15T17:51:41;4.70;99.90
51922;DHT22;37948;53.260;6.394;2023-01-15T17:54:06;4.70;99.90
51922;DHT22;37948;53.260;6.394;2023-01-15T17:56:32;4.70;99.90
51922;DHT22;37948;53.260;6.394;2023-01-15T17:59:16;4.70;99.90
51922;DHT22;37948;53.260;6.394;2023-01-15T18:02:02;4.80;99.90
51922;DHT22;37948;53.260;6.394;2023-01-15T18:04:50;4.80;99.90
51922;DHT22;37948;53.260;6.394;2023-01-15T18:07:37;4.80;99.90
51922;DHT22;37948;53.260;6.394;2023-01-15T18:10:06;4.80;99.90
51922;DHT22;37948;53.260;6.394;2023-01-15T18:12:32;4.70;99.90
51922;DHT22;37948;53.260;6.394;2023-01-15T18:14:58;4.70;99.90